Time;durP1;ratioP1;P1;durP2;ratioP2;P2;SDS_P1;SDS_P2;PMS_P1;PMS_P2;Temp;Humidity;BMP_temperature;BMP_pressure;BME280_temperature;BME280_humidity;BME280_pressure;Samples;Min_cycle;Max_cycle;Signal;HPM_P1;HPM_P2
2023/04/11 00:02:24;;;;;;;24.07;2.90;;;;;;;-145.18;100.00;46711.19;6152199;23;20013;-72
2023/04/11 00:04:53;;;;;;;19.10;3.03;;;;;;;-145.18;100.00;46707.28;6152834;23;20051;-72
2023/04/11 00:07:19;;;;;;;29.70;3.83;;;;;;;-145.18;100.00;46705.31;6152309;23;20319;-72
2023/04/11 00:09:44;;;;;;;30.10;3.70;;;;;;;-145.18;100.00;46703.38;6152836;23;20275;-72
2023/04/11 00:12:10;;;;;;;22.23;4.33;;;;;;;-145.18;100.00;46707.28;6152630;23;20320;-72
2023/04/11 00:14:37;;;;;;;22.87;3.07;;;;;;;-145.18;100.00;46707.28;6152635;23;20050;-73
2023/04/11 00:17:02;;;;;;;29.10;3.63;;;;;;;-145.18;100.00;46705.31;6152227;23;20021;-72
2023/04/11 00:19:28;;;;;;;26.50;2.97;;;;;;;-145.18;100.00;46711.19;6152607;23;20243;-72
2023/04/11 00:21:57;;;;;;;21.30;3.07;;;;;;;-145.18;100.00;46707.28;6152402;23;20016;-72
2023/04/11 00:24:26;;;;;;;18.90;3.23;;;;;;;-145.18;100.00;46711.19;6152356;23;20247;-72
2023/04/11 00:26:52;;;;;;;21.97;2.87;;;;;;;-145.18;100.00;46707.28;6152645;23;20236;-72
2023/04/11 00:29:17;;;;;;;15.90;3.40;;;;;;;-145.18;100.00;46707.28;6152654;23;20271;-72
2023/04/11 00:31:43;;;;;;;19.47;2.50;;;;;;;-145.18;100.00;46709.22;6126430;23;20231;-73
2023/04/11 00:34:08;;;;;;;23.30;4.30;;;;;;;-145.18;100.00;46709.22;6126280;23;20446;-72
2023/04/11 00:36:34;;;;;;;25.40;3.00;;;;;;;-145.18;100.00;46707.28;6152098;23;20068;-72
2023/04/11 00:39:00;;;;;;;33.73;3.63;;;;;;;-145.18;100.00;46705.31;6152571;23;20045;-72
2023/04/11 00:41:25;;;;;;;25.23;3.67;;;;;;;-145.18;100.00;46701.41;6152171;23;20013;-72
2023/04/11 00:43:53;;;;;;;23.63;2.67;;;;;;;-145.18;100.00;46705.31;6152570;23;20236;-73
2023/04/11 00:46:20;;;;;;;33.77;3.20;;;;;;;-145.18;100.00;46707.28;6152225;23;20009;-72
2023/04/11 00:48:46;;;;;;;27.93;4.20;;;;;;;-145.18;100.00;46703.38;6152540;23;20251;-72
2023/04/11 00:51:13;;;;;;;41.50;3.90;;;;;;;-145.18;100.00;46701.41;6152498;23;20235;-72
2023/04/11 00:53:39;;;;;;;20.63;2.97;;;;;;;-145.18;100.00;46705.31;6151966;23;20247;-72
2023/04/11 00:56:05;;;;;;;25.13;4.57;;;;;;;-145.18;100.00;46707.28;6152492;23;20246;-72
2023/04/11 00:58:32;;;;;;;22.93;2.53;;;;;;;-145.18;100.00;46703.38;6152125;23;20346;-73
2023/04/11 01:00:58;;;;;;;32.07;3.80;;;;;;;-145.18;100.00;46705.31;6152635;23;20243;-73
2023/04/11 01:03:23;;;;;;;29.93;3.70;;;;;;;-145.18;100.00;46703.38;6125861;23;20313;-73
2023/04/11 01:05:52;;;;;;;27.43;3.20;;;;;;;-145.18;100.00;46703.38;6152876;23;20049;-72
2023/04/11 01:08:20;;;;;;;25.77;3.07;;;;;;;-145.18;100.00;46705.31;6152141;23;20009;-72
2023/04/11 01:10:45;;;;;;;31.10;4.03;;;;;;;-145.18;100.00;46701.41;6152313;23;20263;-72
2023/04/11 01:13:11;;;;;;;28.80;3.73;;;;;;;-145.18;100.00;46699.47;6152281;23;20258;-73
2023/04/11 01:15:37;;;;;;;22.27;2.93;;;;;;;-145.18;100.00;46705.31;6125943;23;20017;-72
2023/04/11 01:18:04;;;;;;;21.60;2.80;;;;;;;-145.18;100.00;46707.28;6152007;23;20263;-72
2023/04/11 01:20:30;;;;;;;20.03;3.23;;;;;;;-145.18;100.00;46703.38;6152362;23;20009;-73
2023/04/11 01:22:58;;;;;;;18.10;2.60;;;;;;;-145.18;100.00;46707.28;6151928;23;20238;-74
2023/04/11 01:25:24;;;;;;;26.10;3.10;;;;;;;-145.18;100.00;46705.31;6152191;23;20673;-74
2023/04/11 01:27:49;;;;;;;30.70;2.30;;;;;;;-145.18;100.00;46707.28;6152250;23;20238;-74
2023/04/11 01:30:15;;;;;;;15.67;2.77;;;;;;;-145.18;100.00;46703.38;6152305;23;20010;-74
2023/04/11 01:32:41;;;;;;;26.20;2.77;;;;;;;-145.18;100.00;46707.28;6151753;23;20080;-74
2023/04/11 01:35:09;;;;;;;17.27;2.87;;;;;;;-145.18;100.00;46711.19;6152111;23;20029;-74
2023/04/11 01:37:34;;;;;;;10.60;2.10;;;;;;;-145.18;100.00;46709.22;6151694;23;20016;-75
2023/04/11 01:40:00;;;;;;;20.30;2.30;;;;;;;-145.18;100.00;46705.31;6152379;23;20268;-74
2023/04/11 01:42:28;;;;;;;15.73;2.33;;;;;;;-145.18;100.00;46709.22;6151862;23;20052;-74
2023/04/11 01:44:55;;;;;;;10.53;2.03;;;;;;;-145.18;100.00;46695.56;6152026;23;20223;-74
2023/04/11 01:47:21;;;;;;;23.90;2.33;;;;;;;-145.18;100.00;46681.88;6153701;23;20236;-74
2023/04/11 01:49:46;;;;;;;14.83;2.47;;;;;;;-145.18;100.00;46679.94;6154094;23;20231;-74
2023/04/11 01:52:11;;;;;;;8.00;1.40;;;;;;;-145.18;100.00;46672.13;6154201;23;20016;-74
2023/04/11 01:54:37;;;;;;;19.73;2.63;;;;;;;-145.18;100.00;46660.41;6153850;23;20056;-72
2023/04/11 01:57:02;;;;;;;19.30;1.90;;;;;;;-145.18;100.00;46650.63;6153573;23;20435;-75
2023/04/11 01:59:28;;;;;;;15.87;2.73;;;;;;;-145.18;100.00;46646.72;6153714;23;20097;-75
2023/04/11 02:01:53;;;;;;;17.30;1.80;;;;;;;-145.18;100.00;46654.53;6139570;23;20021;-73
2023/04/11 02:04:19;;;;;;;14.80;1.90;;;;;;;-145.18;100.00;46656.50;6182511;23;20013;-74
2023/04/11 02:06:44;;;;;;;18.50;2.20;;;;;;;-145.18;100.00;46658.44;6183464;23;20001;-74
2023/04/11 02:09:10;;;;;;;20.03;2.30;;;;;;;-145.18;100.00;46660.41;6183262;23;20013;-74
2023/04/11 02:11:35;;;;;;;16.27;3.10;;;;;;;-145.18;100.00;46664.31;6183305;23;20004;-74
2023/04/11 02:14:02;;;;;;;25.03;2.93;;;;;;;-145.18;100.00;46660.41;6183445;23;20016;-74
2023/04/11 02:16:28;;;;;;;12.83;1.87;;;;;;;-145.18;100.00;46662.34;6183656;23;20005;-74
2023/04/11 02:18:54;;;;;;;13.80;2.30;;;;;;;-145.18;100.00;46662.34;6183503;23;20253;-74
2023/04/11 02:21:20;;;;;;;10.20;1.77;;;;;;;-145.18;100.00;46658.44;6183367;23;20270;-74
2023/04/11 02:23:45;;;;;;;12.33;1.70;;;;;;;-145.18;100.00;46677.97;6182932;23;20259;-74
2023/04/11 02:26:11;;;;;;;11.03;1.77;;;;;;;-145.18;100.00;46660.41;6157117;23;20016;-74
2023/04/11 02:28:36;;;;;;;10.57;1.57;;;;;;;-145.18;100.00;46638.91;6183739;23;20044;-74
2023/04/11 02:31:02;;;;;;;10.00;1.47;;;;;;;-145.18;100.00;46629.13;6183322;23;20013;-74
2023/04/11 02:33:28;;;;;;;14.40;1.70;;;;;;;-145.18;100.00;46631.09;6183305;23;20025;-74
2023/04/11 02:35:54;;;;;;;11.70;2.17;;;;;;;-145.18;100.00;46621.31;6183543;23;20029;-74
2023/04/11 02:38:19;;;;;;;21.17;1.73;;;;;;;-145.18;100.00;46621.31;6183500;23;20013;-74
2023/04/11 02:40:45;;;;;;;18.77;1.90;;;;;;;-145.18;100.00;46621.31;6183864;23;20001;-74
2023/04/11 02:43:11;;;;;;;7.33;1.10;;;;;;;-145.18;100.00;46621.31;6156846;23;20385;-74
2023/04/11 02:45:36;;;;;;;12.17;1.33;;;;;;;-145.18;100.00;46623.28;6183378;23;20282;-74
2023/04/11 02:48:02;;;;;;;16.97;1.77;;;;;;;-145.18;100.00;46621.31;6182825;23;20009;-74
2023/04/11 02:50:27;;;;;;;18.37;2.77;;;;;;;-145.18;100.00;46627.19;6183674;23;20031;-74
2023/04/11 02:52:53;;;;;;;13.83;1.83;;;;;;;-145.18;100.00;46621.31;6183152;23;20012;-74
2023/04/11 02:55:21;;;;;;;17.73;1.43;;;;;;;-145.18;100.00;46619.38;6157191;23;20032;-74
2023/04/11 02:57:47;;;;;;;6.37;1.30;;;;;;;-145.18;100.00;46619.38;6182458;23;20391;-74
2023/04/11 03:00:13;;;;;;;9.80;1.43;;;;;;;-145.18;100.00;46625.22;6183200;23;20370;-74
2023/04/11 03:02:38;;;;;;;6.47;2.07;;;;;;;-145.18;100.00;46621.31;6183020;23;20056;-74
2023/04/11 03:05:04;;;;;;;13.20;1.30;;;;;;;-145.18;100.00;46621.31;6183052;23;20008;-74
2023/04/11 03:07:32;;;;;;;12.57;1.63;;;;;;;-145.18;100.00;46623.28;6183112;23;20063;-74
2023/04/11 03:09:58;;;;;;;11.70;1.23;;;;;;;-145.18;100.00;46623.28;6182870;23;20008;-74
2023/04/11 03:12:24;;;;;;;12.10;1.80;;;;;;;-145.18;100.00;46621.31;6183027;23;20695;-74
2023/04/11 03:14:49;;;;;;;9.97;1.90;;;;;;;-145.18;100.00;46627.19;6183021;23;20009;-74
2023/04/11 03:17:15;;;;;;;13.67;1.40;;;;;;;-145.18;100.00;46625.22;6182833;23;20036;-74
2023/04/11 03:19:40;;;;;;;6.63;1.43;;;;;;;-145.18;100.00;46619.38;6183164;23;20015;-74
2023/04/11 03:22:06;;;;;;;4.07;1.00;;;;;;;-145.18;100.00;46625.22;6182814;23;20165;-74
2023/04/11 03:24:31;;;;;;;9.87;1.40;;;;;;;-145.18;100.00;46623.28;6183153;23;20032;-74
2023/04/11 03:26:57;;;;;;;6.00;1.20;;;;;;;-145.18;100.00;46621.31;6182781;23;20024;-74
2023/04/11 03:29:23;;;;;;;14.97;1.70;;;;;;;-145.18;100.00;46625.22;6182694;23;20019;-73
2023/04/11 03:31:49;;;;;;;7.97;1.10;;;;;;;-145.18;100.00;46627.19;6182714;23;20456;-74
2023/04/11 03:34:14;;;;;;;5.83;1.60;;;;;;;-145.18;100.00;46619.38;6182852;23;20314;-74
2023/04/11 03:36:40;;;;;;;14.83;1.47;;;;;;;-145.18;100.00;46625.22;6183210;23;20017;-74
2023/04/11 03:39:05;;;;;;;10.00;1.23;;;;;;;-145.18;100.00;46629.13;6182498;23;20383;-74
2023/04/11 03:41:30;;;;;;;7.03;1.77;;;;;;;-145.18;100.00;46631.09;6182974;23;20088;-74
2023/04/11 03:43:56;;;;;;;10.23;1.83;;;;;;;-145.18;100.00;46629.13;6182437;23;20005;-73
2023/04/11 03:46:21;;;;;;;10.23;1.00;;;;;;;-145.18;100.00;46633.06;6182965;23;20096;-73
2023/04/11 03:48:47;;;;;;;9.40;1.87;;;;;;;-145.18;100.00;46631.09;6182329;23;20435;-74
2023/04/11 03:51:12;;;;;;;10.23;1.30;;;;;;;-145.18;100.00;46627.19;6182922;23;20005;-73
2023/04/11 03:53:37;;;;;;;12.07;1.40;;;;;;;-145.18;100.00;46633.06;6182606;23;20009;-74
2023/04/11 03:56:04;;;;;;;8.20;1.37;;;;;;;-145.18;100.00;46625.22;6182697;23;20013;-73
2023/04/11 03:58:30;;;;;;;10.07;1.40;;;;;;;-145.18;100.00;46627.19;6182498;23;20040;-73
2023/04/11 04:00:55;;;;;;;13.20;1.60;;;;;;;-145.18;100.00;46625.22;6182466;23;20257;-73
2023/04/11 04:03:20;;;;;;;8.07;1.40;;;;;;;-145.18;100.00;46623.28;6182136;23;20234;-73
2023/04/11 04:05:46;;;;;;;12.83;1.43;;;;;;;-145.18;100.00;46627.19;6156301;23;20056;-73
2023/04/11 04:08:12;;;;;;;11.97;1.53;;;;;;;-145.18;100.00;46623.28;6182343;23;20497;-73
2023/04/11 04:10:37;;;;;;;6.33;1.20;;;;;;;-145.18;100.00;46617.41;6182711;23;20326;-74
2023/04/11 04:13:03;;;;;;;10.27;1.30;;;;;;;-145.18;100.00;46625.22;6182263;23;20231;-73
2023/04/11 04:15:29;;;;;;;11.63;1.43;;;;;;;-145.18;100.00;46625.22;6156347;23;20128;-73
2023/04/11 04:17:55;;;;;;;11.37;1.47;;;;;;;-145.18;100.00;46629.13;6181534;23;20252;-73
2023/04/11 04:20:20;;;;;;;8.50;1.10;;;;;;;-145.18;100.00;46627.19;6182426;23;20009;-73
2023/04/11 04:22:46;;;;;;;7.33;1.00;;;;;;;-145.18;100.00;46627.19;6182018;23;20017;-74
2023/04/11 04:25:14;;;;;;;5.03;1.10;;;;;;;-145.18;100.00;46627.19;6182234;23;20009;-73
2023/04/11 04:27:43;;;;;;;6.07;1.30;;;;;;;-145.18;100.00;46631.09;6179744;23;20032;-74
2023/04/11 04:30:10;;;;;;;10.50;1.37;;;;;;;-145.18;100.00;46640.88;6156104;23;20235;-74
2023/04/11 04:32:35;;;;;;;11.83;0.83;;;;;;;-145.18;100.00;46640.88;6181779;23;20231;-73
2023/04/11 04:35:01;;;;;;;17.17;1.30;;;;;;;-145.18;100.00;46640.88;6181851;23;20235;-73
2023/04/11 04:37:26;;;;;;;7.90;0.87;;;;;;;-145.18;100.00;46652.59;6181401;23;20009;-74
2023/04/11 04:39:53;;;;;;;5.43;1.07;;;;;;;-145.18;100.00;46660.41;6180460;23;20133;-74
2023/04/11 04:42:27;;;;;;;5.90;0.80;;;;;;;-145.18;100.00;46623.28;6181976;23;20004;-74
2023/04/11 04:44:54;;;;;;;4.50;0.80;;;;;;;-145.18;100.00;46625.22;6155488;23;20672;-74
2023/04/11 04:47:24;;;;;;;11.80;1.87;;;;;;;-145.18;100.00;46627.19;6181594;23;20711;-74
2023/04/11 04:49:57;;;;;;;11.03;1.23;;;;;;;-145.18;100.00;46629.13;6180188;23;20223;-74
2023/04/11 04:52:23;;;;;;;11.70;1.90;;;;;;;-145.18;100.00;46629.13;6180596;23;20684;-74
2023/04/11 04:54:48;;;;;;;4.57;1.03;;;;;;;-145.18;100.00;46631.09;6180028;23;20231;-74
2023/04/11 04:57:14;;;;;;;13.10;1.50;;;;;;;-145.18;100.00;46625.22;6182141;23;20246;-75
2023/04/11 04:59:39;;;;;;;7.33;1.23;;;;;;;-145.18;100.00;46627.19;6182006;23;20687;-74
2023/04/11 05:02:05;;;;;;;10.10;1.07;;;;;;;-145.18;100.00;46629.13;6181649;23;20037;-74
2023/04/11 05:04:32;;;;;;;6.13;1.07;;;;;;;-145.18;100.00;46658.44;6182137;23;20013;-74
2023/04/11 05:06:58;;;;;;;5.77;1.10;;;;;;;-145.18;100.00;46623.28;6181803;23;20008;-74
2023/04/11 05:09:24;;;;;;;10.33;1.27;;;;;;;-145.18;100.00;46654.53;6155173;23;20240;-74
2023/04/11 05:11:49;;;;;;;10.63;1.10;;;;;;;-145.18;100.00;46656.50;6182379;23;20041;-74
2023/04/11 05:14:15;;;;;;;9.53;1.73;;;;;;;-145.18;100.00;46656.50;6182012;23;20370;-74
2023/04/11 05:16:41;;;;;;;8.83;1.17;;;;;;;-145.18;100.00;46652.59;6181955;23;20005;-75
2023/04/11 05:19:07;;;;;;;11.07;1.23;;;;;;;-145.18;100.00;46652.59;6154904;23;20520;-74
2023/04/11 05:21:32;;;;;;;12.73;1.10;;;;;;;-145.18;100.00;46636.94;6183505;23;20032;-74
2023/04/11 05:23:57;;;;;;;12.37;1.87;;;;;;;-145.18;100.00;46638.91;6183835;23;20005;-74
2023/04/11 05:26:23;;;;;;;10.77;1.97;;;;;;;-145.18;100.00;46636.94;6157911;23;20009;-74
2023/04/11 05:28:48;;;;;;;10.33;0.97;;;;;;;-145.18;100.00;46633.06;6183416;23;20012;-75
2023/04/11 05:31:15;;;;;;;6.27;1.10;;;;;;;-145.18;100.00;46627.19;6184235;23;20009;-74
2023/04/11 05:33:41;;;;;;;8.47;1.10;;;;;;;-145.18;100.00;46627.19;6184262;23;20023;-74
2023/04/11 05:36:12;;;;;;;12.40;1.57;;;;;;;-145.18;100.00;46633.06;6184222;23;20305;-74
2023/04/11 05:38:41;;;;;;;9.13;1.97;;;;;;;-145.18;100.00;46625.22;6183641;23;20257;-74
2023/04/11 05:41:07;;;;;;;7.73;1.30;;;;;;;-145.18;100.00;46629.13;6183929;23;20231;-75
2023/04/11 05:43:33;;;;;;;20.00;1.53;;;;;;;-145.18;100.00;46584.22;6183775;23;20262;-75
2023/04/11 05:45:58;;;;;;;11.93;1.33;;;;;;;-145.18;100.00;46625.22;6175430;23;20865;-75
2023/04/11 05:48:24;;;;;;;7.60;1.40;;;;;;;-145.18;100.00;46590.06;6182171;23;20434;-75
2023/04/11 05:50:50;;;;;;;10.90;1.67;;;;;;;-145.18;100.00;46592.03;6182799;23;20419;-75
2023/04/11 05:53:15;;;;;;;7.40;1.00;;;;;;;-145.18;100.00;46595.94;6182414;23;20001;-75
2023/04/11 05:55:41;;;;;;;14.27;1.30;;;;;;;-145.18;100.00;46586.16;6157501;23;20247;-75
2023/04/11 05:58:08;;;;;;;10.10;1.10;;;;;;;-145.18;100.00;46590.06;6179292;23;20017;-75
2023/04/11 06:00:34;;;;;;;7.30;1.00;;;;;;;-145.18;100.00;46593.97;6179310;23;20001;-75
2023/04/11 06:03:00;;;;;;;9.03;1.17;;;;;;;-145.18;100.00;46586.16;6182597;23;20258;-75
2023/04/11 06:05:30;;;;;;;6.33;0.97;;;;;;;-145.18;100.00;46597.88;6182965;23;20013;-76
2023/04/11 06:07:56;;;;;;;13.40;1.43;;;;;;;-145.18;100.00;46597.88;6182684;23;20592;-76
2023/04/11 06:10:22;;;;;;;7.07;1.63;;;;;;;-145.18;100.00;46593.97;6183556;23;20620;-75
2023/04/11 06:12:47;;;;;;;8.53;1.43;;;;;;;-145.18;100.00;46590.06;6182586;23;20235;-76
2023/04/11 06:15:13;;;;;;;12.93;1.50;;;;;;;-145.18;100.00;46588.13;6183405;23;20423;-76
2023/04/11 06:17:39;;;;;;;10.57;1.37;;;;;;;-145.18;100.00;46584.22;6182054;23;20385;-76
2023/04/11 06:20:06;;;;;;;11.07;1.50;;;;;;;-145.18;100.00;46580.31;6182957;23;20317;-76
2023/04/11 06:22:31;;;;;;;15.67;1.73;;;;;;;-145.18;100.00;46578.34;6157049;23;20080;-76
2023/04/11 06:24:57;;;;;;;14.80;1.87;;;;;;;-145.18;100.00;46576.41;6156428;23;20312;-76
2023/04/11 06:27:22;;;;;;;13.93;1.70;;;;;;;-145.18;100.00;46582.25;6183439;23;20020;-76
2023/04/11 06:29:47;;;;;;;10.83;2.30;;;;;;;-145.18;100.00;46627.19;6182421;23;20009;-75
2023/04/11 06:32:13;;;;;;;11.50;1.30;;;;;;;-145.18;100.00;46582.25;6182442;23;20029;-76
2023/04/11 06:34:38;;;;;;;5.23;1.03;;;;;;;-145.18;100.00;46582.25;6183135;23;20084;-76
2023/04/11 06:37:05;;;;;;;8.17;1.67;;;;;;;-145.18;100.00;46586.16;6182444;23;20097;-76
2023/04/11 06:39:31;;;;;;;12.47;1.43;;;;;;;-145.18;100.00;46593.97;6182292;23;20081;-76
2023/04/11 06:41:56;;;;;;;8.07;1.10;;;;;;;-145.18;100.00;46597.88;6182499;23;20255;-76
2023/04/11 06:44:22;;;;;;;11.90;1.90;;;;;;;-145.18;100.00;46613.50;6182556;23;20040;-76
2023/04/11 06:46:47;;;;;;;11.10;1.10;;;;;;;-145.18;100.00;46617.41;6182211;23;20020;-76
2023/04/11 06:49:13;;;;;;;12.30;2.20;;;;;;;-145.18;100.00;46613.50;6182507;23;20013;-76
2023/04/11 06:51:38;;;;;;;9.47;1.73;;;;;;;-145.18;100.00;46617.41;6182308;23;20005;-76
2023/04/11 06:54:05;;;;;;;10.43;1.40;;;;;;;-145.18;100.00;46619.38;6182231;23;20009;-76
2023/04/11 06:56:31;;;;;;;13.93;2.60;;;;;;;-145.18;100.00;46613.50;6180627;23;20068;-76
2023/04/11 06:58:56;;;;;;;9.63;1.67;;;;;;;-145.18;100.00;46625.22;6181637;23;20263;-79
2023/04/11 07:01:24;;;;;;;8.70;1.80;;;;;;;-145.18;100.00;46597.88;6182808;23;20040;-79
2023/04/11 07:03:52;;;;;;;10.53;1.40;;;;;;;-145.18;100.00;46601.78;6182260;23;20477;-79
2023/04/11 07:06:18;;;;;;;11.17;1.37;;;;;;;-145.18;100.00;46588.13;6183325;23;20289;-78
2023/04/11 07:08:44;;;;;;;11.03;1.30;;;;;;;-145.18;100.00;46584.22;6182931;23;20549;-78
2023/04/11 07:11:10;;;;;;;10.77;1.87;;;;;;;-145.18;100.00;46582.25;6182148;23;20231;-79
2023/04/11 07:13:35;;;;;;;10.57;1.67;;;;;;;-145.18;100.00;46574.44;6182497;23;20024;-78
2023/04/11 07:16:00;;;;;;;13.37;2.23;;;;;;;-145.18;100.00;46572.50;6182865;23;20304;-79
2023/04/11 07:18:26;;;;;;;17.50;1.77;;;;;;;-145.18;100.00;46588.13;6182472;23;20012;-78
2023/04/11 07:20:51;;;;;;;15.67;2.13;;;;;;;-145.18;100.00;46588.13;6182843;23;20013;-78
2023/04/11 07:23:17;;;;;;;8.30;1.40;;;;;;;-145.18;100.00;46586.16;6182672;23;20001;-79
2023/04/11 07:25:43;;;;;;;7.90;1.50;;;;;;;-145.18;100.00;46611.56;6182609;23;20097;-79
2023/04/11 07:28:09;;;;;;;9.20;1.30;;;;;;;-145.18;100.00;46615.47;6182104;23;20327;-78
2023/04/11 07:30:35;;;;;;;9.03;1.47;;;;;;;-145.18;100.00;46621.31;6183108;23;20227;-78
2023/04/11 07:33:01;;;;;;;4.20;1.27;;;;;;;-145.18;100.00;46631.09;6182564;23;20005;-78
2023/04/11 07:35:27;;;;;;;13.30;1.63;;;;;;;-145.18;100.00;46644.78;6182722;23;20017;-78
2023/04/11 07:37:53;;;;;;;7.00;1.13;;;;;;;-145.18;100.00;46662.34;6182253;23;20005;-78
2023/04/11 07:40:18;;;;;;;8.40;1.40;;;;;;;-145.18;100.00;46662.34;6182666;23;20671;-78
2023/04/11 07:42:45;;;;;;;14.17;1.17;;;;;;;-145.18;100.00;46717.03;6182609;23;20005;-78
2023/04/11 07:45:10;;;;;;;11.90;1.67;;;;;;;-145.18;100.00;46728.75;6182164;23;20005;-79
2023/04/11 07:47:36;;;;;;;9.90;1.20;;;;;;;-145.18;100.00;46750.25;6182534;23;20234;-78
2023/04/11 07:50:02;;;;;;;19.67;1.67;;;;;;;-145.18;100.00;46806.91;6181670;23;20013;-79
2023/04/11 07:52:28;;;;;;;7.13;0.90;;;;;;;-145.18;100.00;46791.28;6182387;23;20005;-79
2023/04/11 07:54:53;;;;;;;8.73;1.20;;;;;;;-145.18;100.00;46826.44;6182263;23;20238;-78
2023/04/11 07:57:18;;;;;;;5.33;0.80;;;;;;;-145.18;100.00;46861.59;6181840;23;20450;-78
2023/04/11 07:59:45;;;;;;;8.20;1.20;;;;;;;-145.18;100.00;46922.16;6182167;23;20020;-78
2023/04/11 08:02:10;;;;;;;12.83;1.67;;;;;;;-145.18;100.00;46971.00;6181930;23;20339;-79
2023/04/11 08:04:36;;;;;;;5.93;1.50;;;;;;;-145.18;100.00;46988.56;6182134;23;20242;-77
2023/04/11 08:07:02;;;;;;;8.33;0.90;;;;;;;-145.18;100.00;47342.16;6182046;23;20453;-79
2023/04/11 08:09:28;;;;;;;11.23;1.40;;;;;;;-145.18;100.00;47277.69;6182065;23;20009;-78
2023/04/11 08:11:53;;;;;;;9.93;1.40;;;;;;;-145.18;100.00;47502.38;6181858;23;20458;-79
2023/04/11 08:14:19;;;;;;;10.33;1.00;;;;;;;-145.18;100.00;47492.59;6155456;23;20005;-78
2023/04/11 08:16:44;;;;;;;9.07;1.33;;;;;;;-145.18;100.00;47527.78;6155669;23;20009;-78
2023/04/11 08:19:12;;;;;;;7.33;1.30;;;;;;;-145.18;100.00;47496.50;6181387;23;20016;-78
2023/04/11 08:21:38;;;;;;;7.73;1.87;;;;;;;-145.18;100.00;47498.47;6182120;23;20009;-79
2023/04/11 08:24:03;;;;;;;7.43;1.20;;;;;;;-145.18;100.00;47523.88;6181710;23;20627;-79
2023/04/11 08:26:29;;;;;;;10.83;1.50;;;;;;;-145.18;100.00;47500.41;6182210;23;19997;-79
2023/04/11 08:28:55;;;;;;;13.37;1.60;;;;;;;-145.18;100.00;47525.81;6182027;23;20075;-79
2023/04/11 08:31:20;;;;;;;13.13;1.67;;;;;;;-145.18;100.00;47518.00;6182087;23;20296;-78
2023/04/11 08:33:46;;;;;;;10.30;1.47;;;;;;;-145.18;100.00;47535.59;6181784;23;20012;-79
2023/04/11 08:36:11;;;;;;;10.93;1.07;;;;;;;-145.18;100.00;47527.78;6181832;23;20017;-78
2023/04/11 08:38:38;;;;;;;5.67;1.33;;;;;;;-145.18;100.00;47486.75;6181932;23;20419;-78
2023/04/11 08:41:03;;;;;;;6.07;0.87;;;;;;;-145.18;100.00;47484.78;6182128;23;20311;-78
2023/04/11 08:43:32;;;;;;;8.00;1.80;;;;;;;-145.18;100.00;47476.97;6181942;23;20246;-78
2023/04/11 08:46:00;;;;;;;6.40;1.73;;;;;;;-145.18;100.00;47484.78;6181485;23;20004;-78
2023/04/11 08:48:26;;;;;;;7.93;1.33;;;;;;;-145.18;100.00;47455.47;6181780;23;20227;-78
2023/04/11 08:50:51;;;;;;;12.17;1.10;;;;;;;-145.18;100.00;47465.25;6181520;23;20284;-78
2023/04/11 08:53:20;;;;;;;5.67;1.07;;;;;;;-145.18;100.00;47490.66;6181948;23;20063;-77
2023/04/11 08:55:46;;;;;;;4.70;1.40;;;;;;;-145.18;100.00;47500.41;6181407;23;20000;-77
2023/04/11 08:58:12;;;;;;;12.23;1.50;;;;;;;-145.18;100.00;47488.69;6181254;23;20735;-77
2023/04/11 09:00:38;;;;;;;12.77;1.67;;;;;;;-145.18;100.00;47519.97;6181804;23;20703;-77
2023/04/11 09:03:06;;;;;;;3.87;0.80;;;;;;;-145.18;100.00;47478.94;6181017;23;20255;-77
2023/04/11 09:05:32;;;;;;;6.37;0.50;;;;;;;-145.18;100.00;47457.44;6181869;23;20041;-77
2023/04/11 09:08:01;;;;;;;8.53;1.20;;;;;;;-145.18;100.00;47424.22;6181758;23;20607;-77
2023/04/11 09:10:26;;;;;;;6.73;1.27;;;;;;;-145.18;100.00;47412.50;6181482;23;20696;-77
2023/04/11 09:12:53;;;;;;;5.33;0.70;;;;;;;-145.18;100.00;47426.19;6181580;23;20227;-77
2023/04/11 09:15:26;;;;;;;2.73;0.70;;;;;;;-145.18;100.00;47410.56;6181553;23;20005;-77
2023/04/11 09:17:53;;;;;;;9.70;1.30;;;;;;;-145.18;100.00;47467.22;6181709;23;20250;-77
2023/04/11 09:20:25;;;;;;;8.40;1.10;;;;;;;-145.18;100.00;47424.22;6181443;23;20227;-77
2023/04/11 09:22:52;;;;;;;6.57;1.33;;;;;;;-145.18;100.00;47410.56;6181682;23;20005;-77
2023/04/11 09:25:19;;;;;;;9.37;1.30;;;;;;;-145.18;100.00;47443.75;6181613;23;20258;-77
2023/04/11 09:27:44;;;;;;;6.47;0.73;;;;;;;-145.18;100.00;47430.09;6182004;23;20675;-76
2023/04/11 09:30:24;;;;;;;7.73;0.93;;;;;;;-145.18;100.00;47469.16;6181045;23;20227;-76
2023/04/11 09:32:54;;;;;;;6.37;0.90;;;;;;;-145.18;100.00;47469.16;6181833;23;20009;-77
2023/04/11 09:35:23;;;;;;;11.53;0.80;;;;;;;-145.18;100.00;47422.28;6181516;23;20807;-76
2023/04/11 09:37:51;;;;;;;5.13;1.90;;;;;;;-145.18;100.00;47414.47;6181465;23;20246;-77
2023/04/11 09:40:19;;;;;;;13.37;0.93;;;;;;;-145.18;100.00;47426.19;6181615;23;20258;-77
2023/04/11 09:42:46;;;;;;;7.67;0.83;;;;;;;-145.18;100.00;47412.50;6181577;23;20309;-77
2023/04/11 09:45:17;;;;;;;3.67;0.90;;;;;;;-145.18;100.00;47412.50;6181529;23;20282;-77
2023/04/11 09:47:44;;;;;;;5.50;0.93;;;;;;;-145.18;100.00;47424.22;6181343;23;20580;-77
2023/04/11 09:50:10;;;;;;;4.17;0.70;;;;;;;-145.18;100.00;47389.06;6181455;23;20337;-77
2023/04/11 09:52:38;;;;;;;9.37;0.90;;;;;;;-145.18;100.00;47387.09;6181828;23;20456;-76
2023/04/11 09:55:06;;;;;;;3.10;0.90;;;;;;;-145.18;100.00;47381.25;6181278;23;20013;-77
2023/04/11 09:57:33;;;;;;;3.37;0.77;;;;;;;-145.18;100.00;47410.56;6181639;23;20009;-77
2023/04/11 10:00:05;;;;;;;5.33;0.83;;;;;;;-145.18;100.00;47422.28;6177364;23;20009;-77
2023/04/11 10:02:30;;;;;;;5.20;1.00;;;;;;;-145.18;100.00;47387.09;6181386;23;20089;-76
2023/04/11 10:04:59;;;;;;;9.67;1.40;;;;;;;-145.18;100.00;47404.69;6181189;23;20077;-77
2023/04/11 10:07:24;;;;;;;8.63;0.90;;;;;;;-145.18;100.00;47394.91;6182786;23;20013;-76
2023/04/11 10:09:50;;;;;;;8.47;1.23;;;;;;;-145.18;100.00;47383.19;6182947;23;20088;-77
2023/04/11 10:12:36;;;;;;;7.70;1.23;;;;;;;-145.18;100.00;47377.34;6181847;23;20438;-76
2023/04/11 10:15:07;;;;;;;4.40;0.63;;;;;;;-145.18;100.00;47394.91;6182120;23;20013;-76
2023/04/11 10:17:33;;;;;;;7.37;1.00;;;;;;;-145.18;100.00;47383.19;6183536;23;20015;-76
2023/04/11 10:19:58;;;;;;;5.23;0.97;;;;;;;-145.18;100.00;47359.75;6182871;23;20087;-76
2023/04/11 10:22:39;;;;;;;7.50;1.53;;;;;;;-145.18;100.00;47359.75;6182637;23;20085;-76
2023/04/11 10:25:20;;;;;;;2.30;0.70;;;;;;;-145.18;100.00;47385.16;6180539;23;20009;-76
2023/04/11 10:27:48;;;;;;;4.63;1.10;;;;;;;-145.18;100.00;47375.38;6178841;23;20111;-77
2023/04/11 10:30:13;;;;;;;5.80;0.90;;;;;;;-145.18;100.00;47381.25;6181218;23;20466;-76
2023/04/11 10:32:40;;;;;;;9.57;1.10;;;;;;;-145.18;100.00;47369.53;6182205;23;20004;-76
2023/04/11 10:35:15;;;;;;;3.07;1.10;;;;;;;-145.18;100.00;47355.84;6181908;23;20009;-75
2023/04/11 10:37:40;;;;;;;9.20;0.87;;;;;;;-145.18;100.00;47391.00;6182991;23;20012;-75
2023/04/11 10:40:10;;;;;;;5.00;0.67;;;;;;;-145.18;100.00;47355.84;6182342;23;20005;-74
2023/04/11 10:42:39;;;;;;;6.57;0.80;;;;;;;-145.18;100.00;47359.75;6183198;23;20403;-75
2023/04/11 10:45:18;;;;;;;2.73;0.80;;;;;;;-145.18;100.00;47379.28;6182683;23;20001;-74
2023/04/11 10:47:55;;;;;;;4.30;0.90;;;;;;;-145.18;100.00;47348.03;6182987;23;20040;-75
2023/04/11 10:50:24;;;;;;;12.20;1.13;;;;;;;-145.18;100.00;47338.25;6182811;23;20008;-75
2023/04/11 10:52:50;;;;;;;5.47;1.40;;;;;;;-145.18;100.00;47355.84;6183058;23;20001;-74
2023/04/11 10:55:16;;;;;;;6.67;0.80;;;;;;;-145.18;100.00;47383.19;6182813;23;20005;-75
2023/04/11 10:58:07;;;;;;;7.33;0.93;;;;;;;-145.18;100.00;47359.75;6182950;23;20435;-75
2023/04/11 11:00:51;;;;;;;5.43;1.00;;;;;;;-145.18;100.00;47363.66;6182761;23;20086;-74
2023/04/11 11:03:18;;;;;;;5.00;0.90;;;;;;;-145.18;100.00;47357.78;6182694;23;20015;-74